Novomar — 5BCT2 — position and weather

sailwx.info

Track history (hours):
 
Tides and Currents Weather Stations Pressure Air Temp Water Temp Dewpoint Dewpoint Depression Visibility Wind Speed Wind Dir Waves Ship Positions

Novomar

Last reported at 2017-May-19 12:34 UTC. Time now 2017-May-23 05:02 UTC.
Position N 59°38' E 019°45'.

Length 89 m; draft 3.2 m.

Type: Ship. MMSI: 210974000.

Date/timePositionNaut miles runAvg speedWind from/ knotsBaromVisibWave heightAir tempDewpointWater temp
2017-May-19 12:34N 59°38' E 019°45'210.2
2017-May-19 12:24N 59°39' E 019°45'411.0
2017-May-19 12:00N 59°43' E 019°39'510.9
2017-May-19 11:30N 59°47' E 019°32'510.7
2017-May-19 11:00N 59°51' E 019°25'510.8
2017-May-19 10:30N 59°55' E 019°17'510.8
2017-May-19 10:00N 59°59' E 019°11'511.0
2017-May-19 09:30N 60°03' E 019°03'510.6
2017-May-19 09:00N 60°07' E 018°56'4 7.6
2017-May-19 08:30N 60°09' E 018°49'0 0.2
2017-May-19 07:58N 60°09' E 018°49'0 0.0
2017-May-19 07:19N 60°09' E 018°49'0 0.0
2017-May-19 06:49N 60°09' E 018°49'0 0.0
2017-May-19 06:19N 60°09' E 018°49'0 0.0
2017-May-19 05:52N 60°09' E 018°49'0 0.0
2017-May-19 05:19N 60°09' E 018°49'0 0.1
2017-May-19 04:52N 60°09' E 018°49'0 0.0
2017-May-19 04:22N 60°09' E 018°49'0 0.0
2017-May-19 03:37N 60°09' E 018°49'0 0.0
2017-May-19 03:25N 60°09' E 018°49'0 0.0
2017-May-19 02:55N 60°09' E 018°49'0 0.0
2017-May-19 02:25N 60°09' E 018°49'0 0.0
2017-May-19 01:55N 60°09' E 018°49'0 0.0
2017-May-19 01:25N 60°09' E 018°49'0 0.0
2017-May-19 00:55N 60°09' E 018°49'0 0.0
2017-May-19 00:28N 60°09' E 018°49'0 0.0
2017-May-18 23:58N 60°09' E 018°49'0 0.0
2017-May-18 23:28N 60°09' E 018°49'0 0.0
2017-May-18 22:58N 60°09' E 018°49'0 0.0
2017-May-18 22:28N 60°09' E 018°49'0 0.0
2017-May-18 21:55N 60°09' E 018°49'0 0.0
2017-May-18 21:28N 60°09' E 018°49'0 0.0
2017-May-18 20:58N 60°09' E 018°49'0 0.1
2017-May-18 20:28N 60°09' E 018°49'0 0.0
2017-May-18 19:58N 60°09' E 018°49'0 0.1
2017-May-18 19:28N 60°09' E 018°49'1 1.1
2017-May-18 19:00N 60°09' E 018°50'4 8.0
2017-May-18 18:30N 60°13' E 018°46'3 5.0
2017-May-18 18:00N 60°12' E 018°41'4 8.4
2017-May-18 17:30N 60°10' E 018°34'2 3.5
2017-May-18 16:52N 60°10' E 018°29'0 0.0
2017-May-18 16:19N 60°10' E 018°29'0 0.0
2017-May-18 15:52N 60°10' E 018°29'0 0.0
2017-May-18 15:22N 60°10' E 018°29'0 0.0
2017-May-18 14:55N 60°10' E 018°29'0 0.0
2017-May-18 13:55N 60°10' E 018°29'0 0.0
2017-May-18 13:25N 60°10' E 018°29'0 0.0
2017-May-18 12:55N 60°10' E 018°29'0 0.0
2017-May-18 12:13N 60°10' E 018°29'0 0.0
2017-May-18 11:58N 60°10' E 018°29'0 0.0
2017-May-18 11:28N 60°10' E 018°29'0 0.0
2017-May-18 10:58N 60°10' E 018°29'0 0.0
2017-May-18 10:25N 60°10' E 018°29'0 0.0
2017-May-18 09:58N 60°10' E 018°29'0 0.0
2017-May-18 09:28N 60°10' E 018°29'0 0.0
2017-May-18 08:55N 60°10' E 018°29'0 0.0
2017-May-18 08:28N 60°10' E 018°29'0 0.0
2017-May-18 07:58N 60°10' E 018°29'0 0.0
2017-May-18 07:28N 60°10' E 018°29'0 0.0
2017-May-18 06:43N 60°10' E 018°29'0 0.0
2017-May-18 06:19N 60°10' E 018°29'0 0.0
2017-May-18 05:58N 60°10' E 018°29'0 0.0
2017-May-18 05:28N 60°10' E 018°29'0 0.0
2017-May-18 04:49N 60°10' E 018°29'0 0.0
2017-May-18 04:19N 60°10' E 018°29'0 0.0
2017-May-18 03:54N 60°10' E 018°29'0 0.8
2017-May-18 03:30N 60°10' E 018°30'4 7.5
2017-May-18 03:01N 60°09' E 018°37'4 7.9
2017-May-18 02:30N 60°13' E 018°41'3 5.9
2017-May-18 01:59N 60°13' E 018°47'4 7.8
2017-May-18 01:30N 60°10' E 018°51'5 9.1
2017-May-18 01:00N 60°07' E 018°57'4 8.8
2017-May-18 00:30N 60°04' E 019°04'4 8.6
2017-May-18 00:00N 60°02' E 019°11'77 8.6
2017-May-17 15:05N 59°37' E 021°36'1 9.2
2017-May-17 15:00N 59°37' E 021°37'17 8.9
2017-May-17 13:08N 59°37' E 022°10'1 8.4
2017-May-17 12:59N 59°37' E 022°13'4 8.5
2017-May-17 12:30N 59°37' E 022°21'4 8.3
2017-May-17 12:00N 59°37' E 022°29'4 8.5
2017-May-17 11:30N 59°37' E 022°37'7 8.6
2017-May-17 10:38N 59°37' E 022°52'4 8.6
2017-May-17 10:12N 59°38' E 022°59'2 8.7
2017-May-17 10:00N 59°38' E 023°03'4 8.9
2017-May-17 09:30N 59°39' E 023°11'5 9.2
2017-May-17 09:00N 59°40' E 023°20'510.0
2017-May-17 08:30N 59°41' E 023°30'510.0
2017-May-17 08:00N 59°42' E 023°39'5 9.9
2017-May-17 07:30N 59°43' E 023°49'62 9.8
2017-May-17 01:12N 59°56' E 025°50'210.0
2017-May-17 01:00N 59°56' E 025°54'510.0
2017-May-17 00:30N 59°57' E 026°03'5 9.9
2017-May-17 00:00N 59°59' E 026°13'510.0
2017-May-16 23:30N 59°60' E 026°23'510.1
2017-May-16 22:59N 60°01' E 026°33'510.1
2017-May-16 22:30N 60°01' E 026°43'510.1
2017-May-16 22:00N 59°60' E 026°53'6 9.8
2017-May-16 21:25N 59°60' E 027°04'410.2
2017-May-16 20:59N 60°02' E 027°12'510.1
2017-May-16 20:30N 60°05' E 027°20'5 9.8
2017-May-16 20:00N 60°07' E 027°28'910.1
2017-May-16 19:06N 60°12' E 027°44'110.0
2017-May-16 18:59N 60°12' E 027°46'5 9.9
2017-May-16 18:30N 60°11' E 027°55'5 9.8
2017-May-16 18:01N 60°10' E 028°05'5 9.1
2017-May-16 17:30N 60°05' E 028°07'5 9.7
2017-May-16 17:00N 60°00' E 028°09'5 9.9
2017-May-16 16:30N 59°55' E 028°11'5 9.8
2017-May-16 16:00N 59°51' E 028°12'5 9.6
2017-May-16 15:30N 59°46' E 028°15'4 8.8
2017-May-16 15:00N 59°42' E 028°18'2 3.4
2017-May-16 14:24N 59°40' E 028°18'0 0.0
2017-May-16 13:24N 59°40' E 028°18'0 0.0
2017-May-16 12:54N 59°40' E 028°18'0 0.0
2017-May-16 12:24N 59°40' E 028°18'0 0.0
2017-May-16 11:54N 59°40' E 028°18'0 0.0
2017-May-16 11:27N 59°40' E 028°18'0 0.0
2017-May-16 10:57N 59°40' E 028°18'0 0.0
2017-May-16 10:27N 59°40' E 028°18'0 0.0
2017-May-16 09:57N 59°40' E 028°18'0 0.0
2017-May-16 09:27N 59°40' E 028°18'0 0.0
2017-May-16 08:57N 59°40' E 028°18'0 0.0
2017-May-16 08:30N 59°40' E 028°18'0 0.0
2017-May-16 08:00N 59°40' E 028°18'0 0.0
2017-May-16 07:30N 59°40' E 028°18'0 0.0
2017-May-16 07:00N 59°40' E 028°18'0 0.0
2017-May-16 06:30N 59°40' E 028°18'0 0.0
2017-May-16 06:00N 59°40' E 028°18'0 0.0
2017-May-16 05:30N 59°40' E 028°18'0 0.0
2017-May-16 05:00N 59°40' E 028°18'0 0.0
2017-May-16 04:30N 59°40' E 028°18'0 0.0
2017-May-16 04:00N 59°40' E 028°18'0 0.0
2017-May-16 03:30N 59°40' E 028°18'0 0.0
2017-May-16 03:00N 59°40' E 028°18'0 0.0
2017-May-16 02:30N 59°40' E 028°18'0 0.0
2017-May-16 02:00N 59°40' E 028°18'0 0.0
2017-May-16 01:21N 59°40' E 028°18'0 0.0
2017-May-16 00:51N 59°40' E 028°18'0 0.0
2017-May-16 00:24N 59°40' E 028°18'0 0.0
2017-May-15 23:54N 59°40' E 028°18'0 0.0
2017-May-15 23:24N 59°40' E 028°18'0 0.0
2017-May-15 22:54N 59°40' E 028°18'0 0.0
2017-May-15 22:24N 59°40' E 028°18'0 0.0
2017-May-15 21:54N 59°40' E 028°18'0 0.0
2017-May-15 21:27N 59°40' E 028°18'0 0.0
2017-May-15 20:57N 59°40' E 028°18'0 0.0
2017-May-15 20:27N 59°40' E 028°18'0 0.0
2017-May-15 19:57N 59°40' E 028°18'0 0.0
2017-May-15 19:27N 59°40' E 028°18'0 0.0
2017-May-15 18:57N 59°40' E 028°18'0 0.0
2017-May-15 18:30N 59°40' E 028°18'0 0.0
2017-May-15 18:00N 59°40' E 028°18'0 0.0
2017-May-15 17:30N 59°40' E 028°18'0 0.0
2017-May-15 17:00N 59°40' E 028°18'0 0.0
2017-May-15 16:30N 59°40' E 028°18'0 0.0
2017-May-15 15:57N 59°40' E 028°18'0 0.0
2017-May-15 15:30N 59°40' E 028°18'0 0.0
2017-May-15 15:00N 59°40' E 028°18'0 0.0
2017-May-15 14:00N 59°40' E 028°18'0 0.0
2017-May-15 13:18N 59°40' E 028°18'0 0.0
2017-May-15 13:00N 59°40' E 028°18'0 0.0
2017-May-15 12:30N 59°40' E 028°18'0 0.0
2017-May-15 11:57N 59°40' E 028°18'0 0.0
2017-May-15 11:30N 59°40' E 028°18'0 0.0
2017-May-15 11:00N 59°40' E 028°18'0 0.0
2017-May-15 10:30N 59°40' E 028°18'0 0.0
2017-May-15 09:57N 59°40' E 028°18'0 0.0
2017-May-15 09:30N 59°40' E 028°18'0 0.0
2017-May-15 09:00N 59°40' E 028°18'0 0.0
2017-May-15 08:18N 59°40' E 028°18'0 0.0
2017-May-15 08:00N 59°40' E 028°18'0 0.0
2017-May-15 07:30N 59°40' E 028°18'0 0.0
2017-May-15 07:00N 59°40' E 028°18'0 0.0
2017-May-15 06:30N 59°40' E 028°18'0 0.0
2017-May-15 05:51N 59°40' E 028°18'0 0.0
2017-May-15 05:21N 59°40' E 028°18'0 0.0
2017-May-15 05:01N 59°40' E 028°18'1 1.3
2017-May-15 04:30N 59°40' E 028°18'3 6.5
2017-May-15 04:00N 59°43' E 028°16'3 6.2
2017-May-15 03:30N 59°46' E 028°14'4 8.6
2017-May-15 03:00N 59°50' E 028°11'4 8.7
2017-May-15 02:30N 59°55' E 028°09'4 8.8
2017-May-15 02:00N 59°59' E 028°08'4 8.7
2017-May-15 01:30N 60°03' E 028°06'4 8.7
2017-May-15 01:00N 60°08' E 028°04'4 8.4
2017-May-15 00:30N 60°09' E 027°57'4 9.1
2017-May-15 00:00N 60°11' E 027°48'6 8.9
2017-May-14 23:20N 60°08' E 027°37'35 8.9
2017-May-14 19:22N 59°58' E 026°29'5 9.3
2017-May-14 18:49N 59°56' E 026°20'86 9.0
2017-May-14 09:16N 59°34' E 023°35'8 9.3
2017-May-14 08:24N 59°32' E 023°20'5 9.4
2017-May-14 07:51N 59°30' E 023°10'3 9.2
2017-May-14 07:30N 59°29' E 023°04'309 8.9
2017-May-12 20:54N 54°38' E 019°54'1 0.0
2017-May-11 12:52N 54°38' E 019°53'2 6.4
2017-May-11 12:30N 54°40' E 019°50'4 7.8
2017-May-11 12:00N 54°42' E 019°44'510.0
2017-May-11 11:30N 54°44' E 019°36'3 5.9
2017-May-11 11:00N 54°46' E 019°32'2 4.7
2017-May-11 10:30N 54°47' E 019°28'2 4.6
2017-May-11 10:00N 54°48' E 019°25'2 4.4
2017-May-11 09:30N 54°49' E 019°21'2 4.4
2017-May-11 09:00N 54°51' E 019°19'4 7.7
2017-May-11 08:30N 54°54' E 019°16'  
Track history (hours):
 
Tides and Currents Weather Stations Pressure Air Temp Water Temp Dewpoint Dewpoint Depression Visibility Wind Speed Wind Dir Waves Ship Positions

Novomar

Last reported at 2017-May-19 12:34 UTC. Time now 2017-May-23 05:02 UTC.
Position N 59°38' E 019°45'.

Length 89 m; draft 3.2 m.

Type: Ship. MMSI: 210974000.

Date/timePositionNaut miles runAvg speedWind from/ knotsBaromVisibWave heightAir tempDewpointWater temp
2017-May-19 12:34N 59°38' E 019°45'210.2
2017-May-19 12:24N 59°39' E 019°45'411.0
2017-May-19 12:00N 59°43' E 019°39'510.9
2017-May-19 11:30N 59°47' E 019°32'510.7
2017-May-19 11:00N 59°51' E 019°25'510.8
2017-May-19 10:30N 59°55' E 019°17'510.8
2017-May-19 10:00N 59°59' E 019°11'511.0
2017-May-19 09:30N 60°03' E 019°03'510.6
2017-May-19 09:00N 60°07' E 018°56'4 7.6
2017-May-19 08:30N 60°09' E 018°49'0 0.2
2017-May-19 07:58N 60°09' E 018°49'0 0.0
2017-May-19 07:19N 60°09' E 018°49'0 0.0
2017-May-19 06:49N 60°09' E 018°49'0 0.0
2017-May-19 06:19N 60°09' E 018°49'0 0.0
2017-May-19 05:52N 60°09' E 018°49'0 0.0
2017-May-19 05:19N 60°09' E 018°49'0 0.1
2017-May-19 04:52N 60°09' E 018°49'0 0.0
2017-May-19 04:22N 60°09' E 018°49'0 0.0
2017-May-19 03:37N 60°09' E 018°49'0 0.0
2017-May-19 03:25N 60°09' E 018°49'0 0.0
2017-May-19 02:55N 60°09' E 018°49'0 0.0
2017-May-19 02:25N 60°09' E 018°49'0 0.0
2017-May-19 01:55N 60°09' E 018°49'0 0.0
2017-May-19 01:25N 60°09' E 018°49'0 0.0
2017-May-19 00:55N 60°09' E 018°49'0 0.0
2017-May-19 00:28N 60°09' E 018°49'0 0.0
2017-May-18 23:58N 60°09' E 018°49'0 0.0
2017-May-18 23:28N 60°09' E 018°49'0 0.0
2017-May-18 22:58N 60°09' E 018°49'0 0.0
2017-May-18 22:28N 60°09' E 018°49'0 0.0
2017-May-18 21:55N 60°09' E 018°49'0 0.0
2017-May-18 21:28N 60°09' E 018°49'0 0.0
2017-May-18 20:58N 60°09' E 018°49'0 0.1
2017-May-18 20:28N 60°09' E 018°49'0 0.0
2017-May-18 19:58N 60°09' E 018°49'0 0.1
2017-May-18 19:28N 60°09' E 018°49'1 1.1
2017-May-18 19:00N 60°09' E 018°50'4 8.0
2017-May-18 18:30N 60°13' E 018°46'3 5.0
2017-May-18 18:00N 60°12' E 018°41'4 8.4
2017-May-18 17:30N 60°10' E 018°34'2 3.5
2017-May-18 16:52N 60°10' E 018°29'0 0.0
2017-May-18 16:19N 60°10' E 018°29'0 0.0
2017-May-18 15:52N 60°10' E 018°29'0 0.0
2017-May-18 15:22N 60°10' E 018°29'0 0.0
2017-May-18 14:55N 60°10' E 018°29'0 0.0
2017-May-18 13:55N 60°10' E 018°29'0 0.0
2017-May-18 13:25N 60°10' E 018°29'0 0.0
2017-May-18 12:55N 60°10' E 018°29'0 0.0
2017-May-18 12:13N 60°10' E 018°29'0 0.0
2017-May-18 11:58N 60°10' E 018°29'0 0.0
2017-May-18 11:28N 60°10' E 018°29'0 0.0
2017-May-18 10:58N 60°10' E 018°29'0 0.0
2017-May-18 10:25N 60°10' E 018°29'0 0.0
2017-May-18 09:58N 60°10' E 018°29'0 0.0
2017-May-18 09:28N 60°10' E 018°29'0 0.0
2017-May-18 08:55N 60°10' E 018°29'0 0.0
2017-May-18 08:28N 60°10' E 018°29'0 0.0
2017-May-18 07:58N 60°10' E 018°29'0 0.0
2017-May-18 07:28N 60°10' E 018°29'0 0.0
2017-May-18 06:43N 60°10' E 018°29'0 0.0
2017-May-18 06:19N 60°10' E 018°29'0 0.0
2017-May-18 05:58N 60°10' E 018°29'0 0.0
2017-May-18 05:28N 60°10' E 018°29'0 0.0
2017-May-18 04:49N 60°10' E 018°29'0 0.0
2017-May-18 04:19N 60°10' E 018°29'0 0.0
2017-May-18 03:54N 60°10' E 018°29'0 0.8
2017-May-18 03:30N 60°10' E 018°30'4 7.5
2017-May-18 03:01N 60°09' E 018°37'4 7.9
2017-May-18 02:30N 60°13' E 018°41'3 5.9
2017-May-18 01:59N 60°13' E 018°47'4 7.8
2017-May-18 01:30N 60°10' E 018°51'5 9.1
2017-May-18 01:00N 60°07' E 018°57'4 8.8
2017-May-18 00:30N 60°04' E 019°04'4 8.6
2017-May-18 00:00N 60°02' E 019°11'77 8.6
2017-May-17 15:05N 59°37' E 021°36'1 9.2
2017-May-17 15:00N 59°37' E 021°37'17 8.9
2017-May-17 13:08N 59°37' E 022°10'1 8.4
2017-May-17 12:59N 59°37' E 022°13'4 8.5
2017-May-17 12:30N 59°37' E 022°21'4 8.3
2017-May-17 12:00N 59°37' E 022°29'4 8.5
2017-May-17 11:30N 59°37' E 022°37'7 8.6
2017-May-17 10:38N 59°37' E 022°52'4 8.6
2017-May-17 10:12N 59°38' E 022°59'2 8.7
2017-May-17 10:00N 59°38' E 023°03'4 8.9
2017-May-17 09:30N 59°39' E 023°11'5 9.2
2017-May-17 09:00N 59°40' E 023°20'510.0
2017-May-17 08:30N 59°41' E 023°30'510.0
2017-May-17 08:00N 59°42' E 023°39'5 9.9
2017-May-17 07:30N 59°43' E 023°49'62 9.8
2017-May-17 01:12N 59°56' E 025°50'210.0
2017-May-17 01:00N 59°56' E 025°54'510.0
2017-May-17 00:30N 59°57' E 026°03'5 9.9
2017-May-17 00:00N 59°59' E 026°13'510.0
2017-May-16 23:30N 59°60' E 026°23'510.1
2017-May-16 22:59N 60°01' E 026°33'510.1
2017-May-16 22:30N 60°01' E 026°43'510.1
2017-May-16 22:00N 59°60' E 026°53'6 9.8
2017-May-16 21:25N 59°60' E 027°04'410.2
2017-May-16 20:59N 60°02' E 027°12'510.1
2017-May-16 20:30N 60°05' E 027°20'5 9.8
2017-May-16 20:00N 60°07' E 027°28'910.1
2017-May-16 19:06N 60°12' E 027°44'110.0
2017-May-16 18:59N 60°12' E 027°46'5 9.9
2017-May-16 18:30N 60°11' E 027°55'5 9.8
2017-May-16 18:01N 60°10' E 028°05'5 9.1
2017-May-16 17:30N 60°05' E 028°07'5 9.7
2017-May-16 17:00N 60°00' E 028°09'5 9.9
2017-May-16 16:30N 59°55' E 028°11'5 9.8
2017-May-16 16:00N 59°51' E 028°12'5 9.6
2017-May-16 15:30N 59°46' E 028°15'4 8.8
2017-May-16 15:00N 59°42' E 028°18'2 3.4
2017-May-16 14:24N 59°40' E 028°18'0 0.0
2017-May-16 13:24N 59°40' E 028°18'0 0.0
2017-May-16 12:54N 59°40' E 028°18'0 0.0
2017-May-16 12:24N 59°40' E 028°18'0 0.0
2017-May-16 11:54N 59°40' E 028°18'0 0.0
2017-May-16 11:27N 59°40' E 028°18'0 0.0
2017-May-16 10:57N 59°40' E 028°18'0 0.0
2017-May-16 10:27N 59°40' E 028°18'0 0.0
2017-May-16 09:57N 59°40' E 028°18'0 0.0
2017-May-16 09:27N 59°40' E 028°18'0 0.0
2017-May-16 08:57N 59°40' E 028°18'0 0.0
2017-May-16 08:30N 59°40' E 028°18'0 0.0
2017-May-16 08:00N 59°40' E 028°18'0 0.0
2017-May-16 07:30N 59°40' E 028°18'0 0.0
2017-May-16 07:00N 59°40' E 028°18'0 0.0
2017-May-16 06:30N 59°40' E 028°18'0 0.0
2017-May-16 06:00N 59°40' E 028°18'0 0.0
2017-May-16 05:30N 59°40' E 028°18'0 0.0
2017-May-16 05:00N 59°40' E 028°18'0 0.0
2017-May-16 04:30N 59°40' E 028°18'0 0.0
2017-May-16 04:00N 59°40' E 028°18'0 0.0
2017-May-16 03:30N 59°40' E 028°18'0 0.0
2017-May-16 03:00N 59°40' E 028°18'0 0.0
2017-May-16 02:30N 59°40' E 028°18'0 0.0
2017-May-16 02:00N 59°40' E 028°18'0 0.0
2017-May-16 01:21N 59°40' E 028°18'0 0.0
2017-May-16 00:51N 59°40' E 028°18'0 0.0
2017-May-16 00:24N 59°40' E 028°18'0 0.0
2017-May-15 23:54N 59°40' E 028°18'0 0.0
2017-May-15 23:24N 59°40' E 028°18'0 0.0
2017-May-15 22:54N 59°40' E 028°18'0 0.0
2017-May-15 22:24N 59°40' E 028°18'0 0.0
2017-May-15 21:54N 59°40' E 028°18'0 0.0
2017-May-15 21:27N 59°40' E 028°18'0 0.0
2017-May-15 20:57N 59°40' E 028°18'0 0.0
2017-May-15 20:27N 59°40' E 028°18'0 0.0
2017-May-15 19:57N 59°40' E 028°18'0 0.0
2017-May-15 19:27N 59°40' E 028°18'0 0.0
2017-May-15 18:57N 59°40' E 028°18'0 0.0
2017-May-15 18:30N 59°40' E 028°18'0 0.0
2017-May-15 18:00N 59°40' E 028°18'0 0.0
2017-May-15 17:30N 59°40' E 028°18'0 0.0
2017-May-15 17:00N 59°40' E 028°18'0 0.0
2017-May-15 16:30N 59°40' E 028°18'0 0.0
2017-May-15 15:57N 59°40' E 028°18'0 0.0
2017-May-15 15:30N 59°40' E 028°18'0 0.0
2017-May-15 15:00N 59°40' E 028°18'0 0.0
2017-May-15 14:00N 59°40' E 028°18'0 0.0
2017-May-15 13:18N 59°40' E 028°18'0 0.0
2017-May-15 13:00N 59°40' E 028°18'0 0.0
2017-May-15 12:30N 59°40' E 028°18'0 0.0
2017-May-15 11:57N 59°40' E 028°18'0 0.0
2017-May-15 11:30N 59°40' E 028°18'0 0.0
2017-May-15 11:00N 59°40' E 028°18'0 0.0
2017-May-15 10:30N 59°40' E 028°18'0 0.0
2017-May-15 09:57N 59°40' E 028°18'0 0.0
2017-May-15 09:30N 59°40' E 028°18'0 0.0
2017-May-15 09:00N 59°40' E 028°18'0 0.0
2017-May-15 08:18N 59°40' E 028°18'0 0.0
2017-May-15 08:00N 59°40' E 028°18'0 0.0
2017-May-15 07:30N 59°40' E 028°18'0 0.0
2017-May-15 07:00N 59°40' E 028°18'0 0.0
2017-May-15 06:30N 59°40' E 028°18'0 0.0
2017-May-15 05:51N 59°40' E 028°18'0 0.0
2017-May-15 05:21N 59°40' E 028°18'0 0.0
2017-May-15 05:01N 59°40' E 028°18'1 1.3
2017-May-15 04:30N 59°40' E 028°18'3 6.5
2017-May-15 04:00N 59°43' E 028°16'3 6.2
2017-May-15 03:30N 59°46' E 028°14'4 8.6
2017-May-15 03:00N 59°50' E 028°11'4 8.7
2017-May-15 02:30N 59°55' E 028°09'4 8.8
2017-May-15 02:00N 59°59' E 028°08'4 8.7
2017-May-15 01:30N 60°03' E 028°06'4 8.7
2017-May-15 01:00N 60°08' E 028°04'4 8.4
2017-May-15 00:30N 60°09' E 027°57'4 9.1
2017-May-15 00:00N 60°11' E 027°48'6 8.9
2017-May-14 23:20N 60°08' E 027°37'35 8.9
2017-May-14 19:22N 59°58' E 026°29'5 9.3
2017-May-14 18:49N 59°56' E 026°20'86 9.0
2017-May-14 09:16N 59°34' E 023°35'8 9.3
2017-May-14 08:24N 59°32' E 023°20'5 9.4
2017-May-14 07:51N 59°30' E 023°10'3 9.2
2017-May-14 07:30N 59°29' E 023°04'309 8.9
2017-May-12 20:54N 54°38' E 019°54'1 0.0
2017-May-11 12:52N 54°38' E 019°53'2 6.4
2017-May-11 12:30N 54°40' E 019°50'4 7.8
2017-May-11 12:00N 54°42' E 019°44'510.0
2017-May-11 11:30N 54°44' E 019°36'3 5.9
2017-May-11 11:00N 54°46' E 019°32'2 4.7
2017-May-11 10:30N 54°47' E 019°28'2 4.6
2017-May-11 10:00N 54°48' E 019°25'2 4.4
2017-May-11 09:30N 54°49' E 019°21'2 4.4
2017-May-11 09:00N 54°51' E 019°19'4 7.7
2017-May-11 08:30N 54°54' E 019°16'  

Dump ship's entire track history